createdAt,value
2023-05-12T00:00:28.827Z,212.00
2023-05-12T00:01:28.890Z,211.00
2023-05-12T00:02:29.006Z,213.00
2023-05-12T00:03:29.027Z,212.00
2023-05-12T00:04:29.051Z,212.00
2023-05-12T00:05:29.103Z,216.00
2023-05-12T00:06:29.070Z,217.00
2023-05-12T00:07:29.155Z,217.00
2023-05-12T00:08:29.134Z,217.00
2023-05-12T00:09:29.210Z,217.00
2023-05-12T00:10:29.194Z,216.00
2023-05-12T00:11:29.288Z,216.00
2023-05-12T00:12:29.293Z,216.00
2023-05-12T00:13:29.343Z,216.00
2023-05-12T00:14:29.377Z,216.00
2023-05-12T00:15:29.422Z,216.00
2023-05-12T00:16:29.476Z,215.00
2023-05-12T00:17:29.491Z,213.00
2023-05-12T00:18:29.635Z,212.00
2023-05-12T00:19:29.524Z,213.00
2023-05-12T00:20:29.598Z,214.00
2023-05-12T00:21:29.653Z,213.00
2023-05-12T00:22:29.732Z,214.00
2023-05-12T00:23:29.716Z,214.00
2023-05-12T00:24:29.777Z,215.00
2023-05-12T00:25:29.888Z,213.00
2023-05-12T00:26:29.865Z,213.00
2023-05-12T00:27:29.890Z,213.00
2023-05-12T00:28:29.928Z,213.00
2023-05-12T00:29:30.017Z,213.00
2023-05-12T00:30:30.124Z,212.00
2023-05-12T00:31:30.155Z,212.00
2023-05-12T00:32:30.098Z,213.00
2023-05-12T00:33:30.147Z,212.00
2023-05-12T00:34:30.149Z,213.00
2023-05-12T00:35:30.186Z,216.00
2023-05-12T00:36:30.225Z,217.00
2023-05-12T00:37:30.388Z,220.00
2023-05-12T00:38:30.413Z,220.00
2023-05-12T00:39:30.372Z,222.00
2023-05-12T00:40:30.409Z,220.00
2023-05-12T00:41:30.422Z,220.00
2023-05-12T00:42:30.456Z,219.00
2023-05-12T00:43:30.525Z,220.00
2023-05-12T00:44:30.558Z,219.00
2023-05-12T00:45:30.640Z,217.00
2023-05-12T00:46:30.802Z,217.00
2023-05-12T00:47:30.680Z,217.00
2023-05-12T00:48:30.753Z,216.00
2023-05-12T00:49:30.753Z,217.00
2023-05-12T00:50:30.793Z,218.00
2023-05-12T00:51:30.809Z,219.00
2023-05-12T00:52:30.851Z,217.00
2023-05-12T00:53:45.084Z,216.00
2023-05-12T00:54:31.923Z,213.00
2023-05-12T00:55:30.877Z,211.00
2023-05-12T00:56:30.877Z,211.00
2023-05-12T00:57:30.854Z,210.00
2023-05-12T00:58:30.884Z,211.00
2023-05-12T00:59:30.850Z,210.00
2023-05-12T01:00:30.850Z,210.00
2023-05-12T01:01:30.901Z,209.00
2023-05-12T01:02:30.961Z,208.00
2023-05-12T01:03:30.949Z,207.00
2023-05-12T01:04:30.802Z,208.00
2023-05-12T01:05:30.869Z,209.00
2023-05-12T01:06:30.895Z,210.00
2023-05-12T01:07:30.891Z,211.00
2023-05-12T01:08:30.927Z,209.00
2023-05-12T01:09:30.998Z,208.00
2023-05-12T01:10:31.019Z,208.00
2023-05-12T01:11:31.056Z,210.00
2023-05-12T01:12:31.141Z,209.00
2023-05-12T01:13:31.143Z,209.00
2023-05-12T01:14:31.188Z,210.00
2023-05-12T01:15:31.247Z,213.00
2023-05-12T01:16:31.268Z,212.00
2023-05-12T01:17:31.420Z,214.00
2023-05-12T01:18:31.504Z,217.00
2023-05-12T01:19:31.423Z,216.00
2023-05-12T01:20:31.467Z,214.00
2023-05-12T01:21:31.488Z,214.00
2023-05-12T01:22:31.601Z,215.00
2023-05-12T01:23:31.571Z,217.00
2023-05-12T01:24:31.629Z,216.00
2023-05-12T01:25:31.624Z,214.00
2023-05-12T01:26:31.692Z,213.00
2023-05-12T01:27:31.741Z,215.00
2023-05-12T01:28:31.854Z,218.00
2023-05-12T01:29:31.865Z,220.00
2023-05-12T01:30:31.859Z,222.00
2023-05-12T01:31:31.994Z,219.00
2023-05-12T01:32:31.947Z,219.00
2023-05-12T01:33:31.999Z,220.00
2023-05-12T01:34:32.040Z,218.00
2023-05-12T01:35:32.001Z,216.00
2023-05-12T01:36:32.047Z,216.00
2023-05-12T01:37:32.115Z,219.00
2023-05-12T01:38:32.170Z,220.00
2023-05-12T01:39:32.184Z,218.00
2023-05-12T01:40:32.237Z,219.00
2023-05-12T01:41:32.249Z,219.00
2023-05-12T01:42:32.253Z,217.00
2023-05-12T01:43:32.304Z,217.00
2023-05-12T01:44:32.382Z,216.00
2023-05-12T01:45:32.382Z,216.00
2023-05-12T01:46:32.372Z,215.00
2023-05-12T01:47:32.458Z,217.00
2023-05-12T01:48:32.485Z,218.00
2023-05-12T01:49:32.504Z,218.00
2023-05-12T01:50:32.550Z,218.00
2023-05-12T01:51:32.617Z,220.00
2023-05-12T01:52:32.617Z,218.00
2023-05-12T01:53:32.668Z,220.00
2023-05-12T01:54:32.701Z,220.00
2023-05-12T01:55:32.719Z,219.00
2023-05-12T01:56:32.798Z,216.00
2023-05-12T01:57:32.853Z,215.00
2023-05-12T01:58:32.856Z,216.00
2023-05-12T01:59:32.896Z,217.00
2023-05-12T02:00:32.928Z,216.00
2023-05-12T02:01:33.037Z,216.00
2023-05-12T02:02:33.092Z,216.00
2023-05-12T02:03:33.161Z,216.00
2023-05-12T02:04:33.113Z,213.00
2023-05-12T02:05:33.131Z,211.00
2023-05-12T02:06:33.236Z,210.00
2023-05-12T02:07:33.244Z,210.00
2023-05-12T02:08:33.367Z,208.00
2023-05-12T02:09:33.289Z,210.00
2023-05-12T02:10:33.368Z,211.00
2023-05-12T02:11:33.408Z,209.00
2023-05-12T02:12:33.402Z,208.00
2023-05-12T02:13:33.532Z,209.00
2023-05-12T02:14:33.589Z,209.00
2023-05-12T02:15:33.541Z,207.00
2023-05-12T02:16:33.621Z,207.00
2023-05-12T02:17:33.663Z,207.00
2023-05-12T02:18:33.680Z,207.00
2023-05-12T02:19:33.758Z,207.00
2023-05-12T02:20:33.774Z,209.00
2023-05-12T02:21:33.854Z,209.00
2023-05-12T02:22:33.817Z,212.00
2023-05-12T02:23:33.968Z,214.00
2023-05-12T02:24:33.945Z,212.00
2023-05-12T02:25:33.977Z,213.00
2023-05-12T02:26:34.007Z,212.00
2023-05-12T02:27:33.990Z,209.00
2023-05-12T02:28:34.079Z,209.00
2023-05-12T02:29:34.152Z,208.00
2023-05-12T02:30:34.150Z,209.00
2023-05-12T02:31:34.242Z,211.00
2023-05-12T02:32:34.243Z,211.00
2023-05-12T02:33:34.287Z,212.00
2023-05-12T02:34:34.285Z,212.00
2023-05-12T02:35:34.422Z,213.00
2023-05-12T02:36:34.404Z,212.00
2023-05-12T02:37:34.461Z,213.00
2023-05-12T02:38:34.479Z,215.00
2023-05-12T02:39:34.513Z,213.00
2023-05-12T02:40:34.582Z,212.00
2023-05-12T02:41:34.600Z,210.00
2023-05-12T02:42:34.684Z,208.00
2023-05-12T02:43:34.723Z,209.00
2023-05-12T02:44:34.769Z,208.00
2023-05-12T02:45:34.842Z,207.00
2023-05-12T02:46:34.812Z,206.00
2023-05-12T02:47:34.917Z,206.00
2023-05-12T02:48:34.956Z,208.00
2023-05-12T02:49:34.963Z,208.00
2023-05-12T02:50:34.963Z,209.00
2023-05-12T02:51:35.024Z,207.00
2023-05-12T02:52:35.301Z,207.00
2023-05-12T02:53:35.096Z,208.00
2023-05-12T02:54:35.144Z,209.00
2023-05-12T02:55:35.142Z,208.00
2023-05-12T02:56:35.209Z,209.00
2023-05-12T02:57:35.229Z,209.00
2023-05-12T02:58:35.302Z,207.00
2023-05-12T02:59:35.347Z,207.00
2023-05-12T03:00:35.387Z,208.00
2023-05-12T03:01:35.437Z,209.00
2023-05-12T03:02:35.559Z,212.00
2023-05-12T03:03:35.558Z,212.00
2023-05-12T03:04:35.578Z,211.00
2023-05-12T03:05:35.695Z,209.00
2023-05-12T03:06:35.798Z,209.00
2023-05-12T03:07:35.685Z,209.00
2023-05-12T03:08:35.714Z,211.00
2023-05-12T03:09:35.742Z,212.00
2023-05-12T03:10:35.801Z,213.00
2023-05-12T03:11:35.774Z,214.00
2023-05-12T03:12:35.879Z,214.00
2023-05-12T03:13:35.936Z,212.00
2023-05-12T03:14:35.946Z,211.00
2023-05-12T03:15:36.005Z,214.00
2023-05-12T03:16:36.097Z,214.00
2023-05-12T03:17:36.275Z,213.00
2023-05-12T03:18:36.167Z,214.00
2023-05-12T03:19:36.160Z,213.00
2023-05-12T03:20:36.191Z,214.00
2023-05-12T03:21:36.208Z,214.00
2023-05-12T03:22:36.224Z,213.00
2023-05-12T03:23:36.255Z,213.00
2023-05-12T03:24:36.327Z,214.00
2023-05-12T03:25:36.322Z,213.00
2023-05-12T03:26:36.356Z,212.00
2023-05-12T03:27:36.409Z,212.00
2023-05-12T03:28:36.418Z,213.00
2023-05-12T03:29:36.444Z,212.00
2023-05-12T03:30:36.519Z,212.00
2023-05-12T03:31:36.518Z,210.00
2023-05-12T03:32:36.653Z,207.00
2023-05-12T03:33:36.582Z,208.00
2023-05-12T03:34:36.610Z,208.00
2023-05-12T03:35:36.630Z,209.00
2023-05-12T03:36:37.003Z,208.00
2023-05-12T03:37:36.706Z,208.00
2023-05-12T03:38:36.766Z,204.00
2023-05-12T03:39:36.823Z,204.00
2023-05-12T03:40:36.820Z,206.00
2023-05-12T03:41:36.881Z,207.00
2023-05-12T03:42:36.883Z,209.00
2023-05-12T03:43:36.870Z,211.00
2023-05-12T03:44:36.964Z,212.00
2023-05-12T03:45:37.026Z,211.00
2023-05-12T03:46:37.056Z,210.00
2023-05-12T03:47:37.700Z,209.00
2023-05-12T03:48:37.077Z,211.00
2023-05-12T03:49:37.119Z,212.00
2023-05-12T03:50:37.145Z,212.00
2023-05-12T03:51:37.200Z,210.00
2023-05-12T03:52:37.214Z,207.00
2023-05-12T03:53:37.196Z,208.00
2023-05-12T03:54:38.084Z,208.00
2023-05-12T03:55:37.316Z,207.00
2023-05-12T03:56:37.354Z,207.00
2023-05-12T03:57:37.345Z,209.00
2023-05-12T03:58:37.418Z,208.00
2023-05-12T03:59:37.430Z,209.00
2023-05-12T04:00:37.542Z,207.00
2023-05-12T04:01:37.517Z,207.00
2023-05-12T04:02:37.581Z,204.00
2023-05-12T04:03:37.592Z,204.00
2023-05-12T04:04:37.553Z,203.00
2023-05-12T04:05:37.633Z,205.00
2023-05-12T04:06:37.635Z,203.00
2023-05-12T04:07:37.731Z,202.00
2023-05-12T04:08:39.037Z,200.00
2023-05-12T04:09:37.686Z,204.00
2023-05-12T04:10:37.763Z,207.00
2023-05-12T04:11:37.679Z,205.00
2023-05-12T04:12:37.713Z,208.00
2023-05-12T04:13:37.688Z,208.00
2023-05-12T04:14:42.752Z,207.00
2023-05-12T04:15:39.520Z,208.00
2023-05-12T04:16:37.727Z,210.00
2023-05-12T04:17:37.726Z,212.00
2023-05-12T04:18:37.700Z,213.00
2023-05-12T04:19:37.635Z,212.00
2023-05-12T04:20:39.556Z,212.00
2023-05-12T04:21:37.623Z,213.00
2023-05-12T04:22:37.627Z,212.00
2023-05-12T04:23:37.627Z,210.00
2023-05-12T04:24:37.643Z,211.00
2023-05-12T04:25:37.595Z,211.00
2023-05-12T04:26:37.592Z,213.00
2023-05-12T04:27:37.748Z,214.00
2023-05-12T04:28:37.658Z,215.00
2023-05-12T04:29:37.721Z,216.00
2023-05-12T04:30:37.775Z,217.00
2023-05-12T04:31:37.788Z,217.00
2023-05-12T04:32:37.895Z,217.00
2023-05-12T04:33:37.857Z,217.00
2023-05-12T04:34:37.907Z,215.00
2023-05-12T04:35:37.914Z,213.00
2023-05-12T04:36:37.970Z,215.00
2023-05-12T04:37:38.036Z,216.00
2023-05-12T04:38:38.096Z,218.00
2023-05-12T04:39:38.121Z,216.00
2023-05-12T04:40:38.162Z,215.00
2023-05-12T04:41:38.166Z,216.00
2023-05-12T04:42:38.294Z,215.00
2023-05-12T04:44:38.397Z,214.00
2023-05-12T04:45:38.234Z,212.00
2023-05-12T04:46:38.360Z,211.00
2023-05-12T04:47:38.240Z,213.00
2023-05-12T04:48:38.211Z,213.00
2023-05-12T04:49:38.163Z,215.00
2023-05-12T04:50:38.249Z,215.00
2023-05-12T04:51:38.175Z,214.00
2023-05-12T04:52:38.190Z,213.00
2023-05-12T04:53:38.144Z,213.00
2023-05-12T04:54:38.268Z,217.00
2023-05-12T04:55:38.098Z,218.00
2023-05-12T04:56:38.111Z,218.00
2023-05-12T04:57:38.174Z,216.00
2023-05-12T04:58:38.122Z,215.00
2023-05-12T04:59:39.947Z,214.00
2023-05-12T05:00:38.077Z,212.00
2023-05-12T05:01:38.197Z,213.00
2023-05-12T05:02:38.171Z,214.00
2023-05-12T05:03:38.196Z,214.00
2023-05-12T05:04:38.521Z,215.00
2023-05-12T05:05:38.078Z,216.00
2023-05-12T05:06:38.071Z,219.00
2023-05-12T05:07:38.092Z,219.00
2023-05-12T05:08:38.019Z,219.00
2023-05-12T05:09:38.160Z,220.00
2023-05-12T05:10:38.132Z,222.00
2023-05-12T05:11:38.052Z,219.00
2023-05-12T05:12:38.498Z,220.00
2023-05-12T05:13:38.022Z,220.00
2023-05-12T05:14:38.091Z,218.00
2023-05-12T05:15:38.066Z,219.00
2023-05-12T05:16:37.992Z,216.00
2023-05-12T05:17:38.094Z,216.00
2023-05-12T05:18:38.069Z,214.00
2023-05-12T05:19:53.501Z,212.00
2023-05-12T05:20:40.803Z,217.00
2023-05-12T05:21:37.966Z,219.00
2023-05-12T05:22:37.983Z,221.00
2023-05-12T05:23:37.976Z,221.00
2023-05-12T05:24:37.992Z,222.00
2023-05-12T05:25:38.064Z,225.00
2023-05-12T05:26:37.968Z,229.00
2023-05-12T05:27:37.917Z,269.00
2023-05-12T05:28:37.976Z,268.00
2023-05-12T05:29:38.081Z,260.00
2023-05-12T05:30:37.923Z,254.00
2023-05-12T05:31:37.975Z,250.00
2023-05-12T05:32:38.086Z,246.00
2023-05-12T05:33:37.857Z,246.00
2023-05-12T05:34:37.966Z,250.00
2023-05-12T05:35:37.907Z,253.00
2023-05-12T05:36:37.935Z,256.00
2023-05-12T05:37:37.838Z,261.00
2023-05-12T05:38:37.826Z,263.00
2023-05-12T05:39:38.075Z,269.00
2023-05-12T05:40:49.321Z,277.00
2023-05-12T05:41:38.851Z,282.00
2023-05-12T05:42:38.559Z,285.00
2023-05-12T05:43:37.774Z,288.00
2023-05-12T05:44:37.776Z,295.00
2023-05-12T05:45:39.530Z,301.00
2023-05-12T05:46:37.832Z,307.00
2023-05-12T05:47:38.188Z,309.00
2023-05-12T05:48:38.540Z,316.00
2023-05-12T05:49:38.428Z,317.00
2023-05-12T05:50:37.763Z,317.00
2023-05-12T05:51:37.733Z,320.00
2023-05-12T05:52:37.810Z,322.00
2023-05-12T05:53:37.830Z,324.00
2023-05-12T05:54:37.800Z,326.00
2023-05-12T05:55:39.619Z,332.00
2023-05-12T05:56:38.052Z,333.00
2023-05-12T05:57:38.196Z,334.00
2023-05-12T05:58:37.866Z,335.00
2023-05-12T05:59:37.878Z,334.00
2023-05-12T06:00:39.550Z,336.00
2023-05-12T06:01:37.902Z,335.00
2023-05-12T06:02:37.952Z,336.00
2023-05-12T06:03:38.197Z,337.00
2023-05-12T06:04:38.026Z,338.00
2023-05-12T06:05:37.908Z,338.00
2023-05-12T06:06:37.928Z,338.00
2023-05-12T06:07:37.916Z,339.00
2023-05-12T06:08:37.955Z,338.00
2023-05-12T06:09:38.581Z,333.00
2023-05-12T06:10:38.630Z,333.00
2023-05-12T06:11:38.052Z,334.00
2023-05-12T06:12:38.191Z,335.00
2023-05-12T06:13:38.094Z,336.00
2023-05-12T06:14:38.187Z,335.00
2023-05-12T06:15:38.175Z,331.00
2023-05-12T06:16:38.231Z,328.00
2023-05-12T06:17:38.218Z,327.00
2023-05-12T06:18:38.469Z,323.00
2023-05-12T06:19:38.278Z,322.00
2023-05-12T06:20:38.281Z,320.00
2023-05-12T06:21:38.496Z,321.00
2023-05-12T06:22:38.504Z,321.00
2023-05-12T06:23:38.441Z,319.00
2023-05-12T06:24:38.437Z,320.00
2023-05-12T06:25:38.462Z,321.00
2023-05-12T06:26:38.545Z,318.00
2023-05-12T06:27:39.042Z,318.00
2023-05-12T06:28:38.572Z,316.00
2023-05-12T06:29:38.595Z,315.00
2023-05-12T06:30:38.590Z,314.00
2023-05-12T06:31:39.551Z,306.00
2023-05-12T06:32:38.759Z,304.00
2023-05-12T06:33:38.738Z,302.00
2023-05-12T06:34:38.817Z,299.00
2023-05-12T06:35:38.753Z,297.00
2023-05-12T06:36:38.831Z,295.00
2023-05-12T06:37:38.811Z,292.00
2023-05-12T06:38:38.943Z,286.00
2023-05-12T06:39:39.604Z,281.00
2023-05-12T06:40:39.572Z,280.00
2023-05-12T06:41:39.038Z,279.00
2023-05-12T06:42:39.060Z,280.00
2023-05-12T06:43:39.053Z,282.00
2023-05-12T06:44:41.208Z,284.00
2023-05-12T06:45:39.135Z,282.00
2023-05-12T06:46:39.210Z,285.00
2023-05-12T06:47:39.149Z,280.00
2023-05-12T06:48:39.029Z,280.00
2023-05-12T06:49:39.056Z,281.00
2023-05-12T06:50:39.046Z,282.00
2023-05-12T06:51:39.035Z,286.00
2023-05-12T06:52:39.080Z,282.00
2023-05-12T06:53:39.027Z,277.00
2023-05-12T06:54:39.034Z,278.00
2023-05-12T06:55:39.005Z,281.00
2023-05-12T06:56:38.968Z,284.00
2023-05-12T06:57:38.976Z,290.00
2023-05-12T06:58:39.611Z,293.00
2023-05-12T06:59:38.997Z,299.00
2023-05-12T07:00:39.098Z,304.00
2023-05-12T07:01:39.009Z,308.00
2023-05-12T07:02:38.977Z,311.00
2023-05-12T07:03:39.664Z,315.00
2023-05-12T07:04:38.947Z,317.00
2023-05-12T07:05:38.974Z,318.00
2023-05-12T07:06:38.933Z,320.00
2023-05-12T07:07:38.936Z,320.00
2023-05-12T07:08:38.875Z,320.00
2023-05-12T07:09:38.949Z,321.00
2023-05-12T07:10:39.235Z,320.00
2023-05-12T07:11:38.890Z,321.00
2023-05-12T07:12:38.921Z,320.00
2023-05-12T07:13:38.882Z,321.00
2023-05-12T07:14:38.892Z,319.00
2023-05-12T07:15:38.963Z,318.00
2023-05-12T07:16:38.910Z,318.00
2023-05-12T07:17:38.880Z,318.00
2023-05-12T07:18:40.690Z,319.00
2023-05-12T07:19:38.832Z,319.00
2023-05-12T07:20:38.960Z,318.00
2023-05-12T07:21:39.085Z,318.00
2023-05-12T07:22:39.204Z,318.00
2023-05-12T07:23:38.840Z,318.00
2023-05-12T07:24:38.822Z,317.00
2023-05-12T07:25:38.947Z,318.00
2023-05-12T07:26:39.147Z,319.00
2023-05-12T07:27:38.790Z,323.00
2023-05-12T07:28:38.770Z,324.00
2023-05-12T07:29:38.787Z,325.00
2023-05-12T07:30:38.800Z,329.00
2023-05-12T07:31:38.927Z,335.00
2023-05-12T07:32:39.011Z,337.00
2023-05-12T07:33:38.962Z,337.00
2023-05-12T07:34:44.475Z,341.00
2023-05-12T07:35:39.219Z,344.00
2023-05-12T07:36:39.260Z,341.00
2023-05-12T07:37:39.675Z,339.00
2023-05-12T07:38:39.204Z,340.00
2023-05-12T07:39:39.247Z,341.00
2023-05-12T07:40:39.258Z,340.00
2023-05-12T07:41:39.267Z,343.00
2023-05-12T07:42:39.363Z,343.00
2023-05-12T07:43:39.511Z,345.00
2023-05-12T07:44:39.513Z,344.00
2023-05-12T07:45:39.603Z,345.00
2023-05-12T07:46:39.563Z,348.00
2023-05-12T07:47:39.570Z,352.00
2023-05-12T07:48:39.621Z,355.00
2023-05-12T07:49:39.790Z,356.00
2023-05-12T07:50:39.656Z,358.00
2023-05-12T07:51:39.817Z,359.00
2023-05-12T07:52:39.789Z,358.00
2023-05-12T07:53:39.776Z,356.00
2023-05-12T07:54:39.925Z,355.00
2023-05-12T07:55:40.578Z,356.00
2023-05-12T07:56:40.063Z,355.00
2023-05-12T07:57:39.964Z,355.00
2023-05-12T07:58:40.010Z,354.00
2023-05-12T07:59:40.045Z,353.00
2023-05-12T08:00:40.028Z,353.00
2023-05-12T08:01:40.087Z,347.00
2023-05-12T08:02:40.287Z,344.00
2023-05-12T08:03:40.730Z,341.00
2023-05-12T08:04:41.462Z,336.00
2023-05-12T08:05:40.238Z,331.00
2023-05-12T08:06:40.269Z,327.00
2023-05-12T08:07:41.162Z,329.00
2023-05-12T08:08:40.394Z,326.00
2023-05-12T08:09:40.612Z,323.00
2023-05-12T08:10:40.502Z,322.00
2023-05-12T08:11:40.467Z,324.00
2023-05-12T08:12:43.136Z,329.00
2023-05-12T08:13:40.748Z,336.00
2023-05-12T08:14:40.756Z,343.00
2023-05-12T08:15:40.809Z,342.00
2023-05-12T08:16:41.673Z,341.00
2023-05-12T08:17:40.922Z,338.00
2023-05-12T08:18:40.896Z,335.00
2023-05-12T08:19:41.984Z,331.00
2023-05-12T08:20:41.083Z,329.00
2023-05-12T08:21:41.098Z,330.00
2023-05-12T08:22:41.048Z,333.00
2023-05-12T08:23:41.159Z,336.00
2023-05-12T08:24:41.222Z,341.00
2023-05-12T08:25:42.138Z,345.00
2023-05-12T08:26:42.101Z,348.00
2023-05-12T08:27:41.260Z,348.00
2023-05-12T08:28:41.289Z,348.00
2023-05-12T08:29:41.310Z,345.00
2023-05-12T08:30:42.188Z,345.00
2023-05-12T08:31:41.386Z,344.00
2023-05-12T08:32:41.500Z,335.00
2023-05-12T08:33:41.444Z,330.00
2023-05-12T08:34:41.510Z,319.00
2023-05-12T08:35:41.502Z,314.00
2023-05-12T08:36:41.500Z,309.00
2023-05-12T08:37:41.503Z,301.00
2023-05-12T08:38:41.553Z,297.00
2023-05-12T08:39:41.576Z,297.00
2023-05-12T08:40:41.591Z,295.00
2023-05-12T08:41:43.396Z,297.00
2023-05-12T08:42:41.757Z,306.00
2023-05-12T08:43:41.655Z,315.00
2023-05-12T08:44:41.667Z,317.00
2023-05-12T08:45:41.771Z,316.00
2023-05-12T08:46:41.823Z,311.00
2023-05-12T08:47:42.208Z,325.00
2023-05-12T08:48:41.786Z,329.00
2023-05-12T08:49:41.798Z,329.00
2023-05-12T08:50:41.907Z,329.00
2023-05-12T08:51:42.118Z,329.00
2023-05-12T08:52:44.595Z,329.00
2023-05-12T08:53:41.944Z,328.00
2023-05-12T08:54:54.853Z,323.00
2023-05-12T08:55:50.827Z,323.00
2023-05-12T08:57:42.072Z,323.00
2023-05-12T08:58:42.604Z,321.00
2023-05-12T08:59:42.059Z,326.00
2023-05-12T09:00:42.165Z,327.00
2023-05-12T09:01:42.060Z,324.00
2023-05-12T09:02:52.013Z,326.00
2023-05-12T09:03:43.074Z,326.00
2023-05-12T09:04:42.081Z,327.00
2023-05-12T09:05:42.019Z,332.00
2023-05-12T09:06:42.029Z,335.00
2023-05-12T09:07:42.040Z,335.00
2023-05-12T09:08:42.028Z,333.00
2023-05-12T09:09:41.984Z,337.00
2023-05-12T09:10:42.001Z,336.00
2023-05-12T09:11:41.998Z,335.00
2023-05-12T09:12:41.945Z,335.00
2023-05-12T09:13:41.949Z,337.00
2023-05-12T09:14:41.962Z,337.00
2023-05-12T09:15:41.991Z,336.00
2023-05-12T09:16:42.017Z,336.00
2023-05-12T09:17:42.010Z,336.00
2023-05-12T09:18:42.186Z,370.00
2023-05-12T09:19:41.995Z,355.00
2023-05-12T09:20:42.016Z,353.00
2023-05-12T09:21:42.054Z,349.00
2023-05-12T09:22:42.063Z,352.00
2023-05-12T09:23:42.245Z,350.00
2023-05-12T09:24:42.166Z,347.00
2023-05-12T09:25:42.167Z,345.00
2023-05-12T09:26:42.245Z,344.00
2023-05-12T09:27:42.680Z,338.00
2023-05-12T09:28:42.272Z,339.00
2023-05-12T09:29:48.256Z,343.00
2023-05-12T09:30:43.253Z,344.00
2023-05-12T09:31:42.322Z,344.00
2023-05-12T09:32:42.254Z,347.00
2023-05-12T09:33:42.248Z,350.00
2023-05-12T09:34:42.304Z,350.00
2023-05-12T09:35:42.232Z,356.00
2023-05-12T09:36:42.229Z,359.00
2023-05-12T09:37:42.229Z,361.00
2023-05-12T09:38:42.248Z,364.00
2023-05-12T09:39:42.255Z,366.00
2023-05-12T09:40:42.256Z,368.00
2023-05-12T09:41:42.177Z,369.00
2023-05-12T09:42:42.207Z,367.00
2023-05-12T09:43:42.678Z,366.00
2023-05-12T09:44:42.173Z,366.00
2023-05-12T09:45:43.189Z,366.00
2023-05-12T09:46:42.248Z,365.00
2023-05-12T09:47:42.388Z,365.00
2023-05-12T09:48:42.620Z,361.00
2023-05-12T09:49:42.318Z,359.00
2023-05-12T09:50:47.425Z,356.00
2023-05-12T09:51:43.356Z,352.00
2023-05-12T09:52:42.337Z,348.00
2023-05-12T09:53:42.658Z,345.00
2023-05-12T09:54:42.281Z,340.00
2023-05-12T09:55:42.299Z,336.00
2023-05-12T09:56:42.258Z,327.00
2023-05-12T09:57:42.264Z,321.00
2023-05-12T09:58:42.274Z,321.00
2023-05-12T09:59:43.786Z,319.00
2023-05-12T10:01:42.246Z,318.00
2023-05-12T10:02:42.258Z,323.00
2023-05-12T10:03:42.311Z,324.00
2023-05-12T10:04:42.258Z,324.00
2023-05-12T10:05:42.221Z,323.00
2023-05-12T10:06:42.231Z,321.00
2023-05-12T10:07:42.196Z,319.00
2023-05-12T10:08:42.254Z,321.00
2023-05-12T10:09:42.700Z,322.00
2023-05-12T10:10:42.185Z,319.00
2023-05-12T10:11:42.204Z,314.00
2023-05-12T10:12:42.220Z,313.00
2023-05-12T10:13:42.142Z,314.00
2023-05-12T10:14:42.629Z,311.00
2023-05-12T10:15:42.183Z,308.00
2023-05-12T10:16:42.152Z,306.00
2023-05-12T10:17:42.166Z,305.00
2023-05-12T10:18:42.213Z,301.00
2023-05-12T10:19:42.198Z,299.00
2023-05-12T10:20:42.158Z,296.00
2023-05-12T10:21:42.133Z,296.00
2023-05-12T10:22:42.130Z,296.00
2023-05-12T10:23:42.105Z,297.00
2023-05-12T10:24:42.063Z,303.00
2023-05-12T10:25:42.084Z,302.00
2023-05-12T10:26:42.122Z,303.00
2023-05-12T10:27:42.102Z,306.00
2023-05-12T10:28:42.075Z,314.00
2023-05-12T10:29:42.075Z,312.00
2023-05-12T10:30:42.077Z,309.00
2023-05-12T10:31:42.133Z,304.00
2023-05-12T10:32:42.053Z,300.00
2023-05-12T10:33:42.062Z,293.00
2023-05-12T10:34:41.999Z,291.00
2023-05-12T10:35:42.011Z,287.00
2023-05-12T10:36:41.988Z,291.00
2023-05-12T10:37:42.018Z,296.00
2023-05-12T10:38:42.662Z,297.00
2023-05-12T10:39:42.038Z,299.00
2023-05-12T10:40:42.155Z,306.00
2023-05-12T10:41:42.154Z,306.00
2023-05-12T10:42:42.515Z,305.00
2023-05-12T10:43:42.176Z,303.00
2023-05-12T10:44:42.202Z,304.00
2023-05-12T10:45:42.630Z,306.00
2023-05-12T10:46:42.318Z,307.00
2023-05-12T10:47:42.400Z,305.00
2023-05-12T10:48:42.304Z,307.00
2023-05-12T10:49:42.311Z,309.00
2023-05-12T10:50:42.388Z,315.00
2023-05-12T10:51:42.386Z,318.00
2023-05-12T10:52:42.368Z,318.00
2023-05-12T10:53:51.132Z,318.00
2023-05-12T10:54:43.516Z,317.00
2023-05-12T10:55:42.621Z,316.00
2023-05-12T10:56:43.289Z,317.00
2023-05-12T10:57:42.757Z,318.00
2023-05-12T10:58:42.747Z,321.00
2023-05-12T10:59:43.241Z,316.00
2023-05-12T11:00:43.064Z,313.00
2023-05-12T11:01:43.196Z,310.00
2023-05-12T11:02:43.087Z,310.00
2023-05-12T11:03:42.873Z,308.00
2023-05-12T11:04:43.036Z,306.00
2023-05-12T11:05:42.563Z,304.00
2023-05-12T11:06:43.101Z,304.00
2023-05-12T11:07:42.591Z,303.00
2023-05-12T11:08:42.623Z,302.00
2023-05-12T11:09:52.760Z,302.00
2023-05-12T11:10:43.523Z,296.00
2023-05-12T11:11:43.447Z,295.00
2023-05-12T11:12:42.411Z,296.00
2023-05-12T11:13:42.405Z,293.00
2023-05-12T11:14:42.368Z,292.00
2023-05-12T11:15:42.353Z,290.00
2023-05-12T11:16:42.742Z,291.00
2023-05-12T11:17:42.458Z,289.00
2023-05-12T11:18:42.369Z,291.00
2023-05-12T11:19:43.135Z,342.00
2023-05-12T11:20:43.299Z,318.00
2023-05-12T11:21:42.489Z,315.00
2023-05-12T11:22:42.271Z,313.00
2023-05-12T11:23:42.294Z,311.00
2023-05-12T11:24:42.279Z,310.00
2023-05-12T11:25:44.309Z,309.00
2023-05-12T11:26:42.407Z,309.00
2023-05-12T11:27:42.456Z,312.00
2023-05-12T11:28:42.383Z,311.00
2023-05-12T11:29:42.460Z,311.00
2023-05-12T11:30:42.425Z,315.00
2023-05-12T11:31:42.512Z,318.00
2023-05-12T11:32:42.512Z,319.00
2023-05-12T11:33:42.516Z,319.00
2023-05-12T11:34:42.596Z,322.00
2023-05-12T11:35:42.696Z,327.00
2023-05-12T11:36:42.663Z,329.00
2023-05-12T11:37:42.657Z,329.00
2023-05-12T11:38:42.662Z,325.00
2023-05-12T11:39:42.710Z,327.00
2023-05-12T11:40:42.810Z,328.00
2023-05-12T11:41:43.223Z,332.00
2023-05-12T11:42:42.822Z,335.00
2023-05-12T11:43:42.835Z,336.00
2023-05-12T11:44:42.865Z,336.00
2023-05-12T11:45:43.009Z,338.00
2023-05-12T11:46:42.939Z,338.00
2023-05-12T11:47:42.947Z,338.00
2023-05-12T11:48:42.950Z,335.00
2023-05-12T11:49:43.029Z,333.00
2023-05-12T11:50:43.071Z,332.00
2023-05-12T11:51:43.100Z,333.00
2023-05-12T11:52:43.119Z,332.00
2023-05-12T11:53:43.193Z,332.00
2023-05-12T11:54:43.209Z,333.00
2023-05-12T11:55:43.200Z,334.00
2023-05-12T11:56:43.308Z,330.00
2023-05-12T11:57:43.248Z,329.00
2023-05-12T11:58:43.272Z,327.00
2023-05-12T11:59:43.331Z,328.00
2023-05-12T12:00:43.342Z,326.00
2023-05-12T12:01:43.377Z,324.00
2023-05-12T12:02:43.524Z,320.00
2023-05-12T12:03:43.530Z,314.00
2023-05-12T12:04:43.720Z,311.00
2023-05-12T12:05:43.456Z,314.00
2023-05-12T12:06:43.479Z,314.00
2023-05-12T12:07:43.603Z,312.00
2023-05-12T12:08:43.584Z,312.00
2023-05-12T12:09:43.618Z,309.00
2023-05-12T12:10:43.610Z,306.00
2023-05-12T12:11:43.663Z,302.00
2023-05-12T12:12:43.660Z,298.00
2023-05-12T12:13:43.732Z,295.00
2023-05-12T12:14:44.193Z,292.00
2023-05-12T12:15:43.779Z,292.00
2023-05-12T12:16:44.009Z,292.00
2023-05-12T12:17:43.841Z,289.00
2023-05-12T12:18:43.879Z,288.00
2023-05-12T12:19:43.889Z,285.00
2023-05-12T12:20:43.911Z,283.00
2023-05-12T12:21:43.942Z,282.00
2023-05-12T12:22:44.201Z,281.00
2023-05-12T12:23:50.895Z,279.00
2023-05-12T12:24:44.986Z,277.00
2023-05-12T12:25:43.973Z,276.00
2023-05-12T12:26:43.960Z,273.00
2023-05-12T12:27:43.930Z,274.00
2023-05-12T12:28:43.935Z,273.00
2023-05-12T12:29:43.951Z,272.00
2023-05-12T12:30:43.953Z,270.00
2023-05-12T12:31:44.097Z,268.00